createdAt,value
2022-10-26T00:01:15.852Z,26.30
2022-10-26T00:03:45.302Z,28.80
2022-10-26T00:06:25.507Z,32.30
2022-10-26T00:08:52.987Z,27.60
2022-10-26T00:11:20.478Z,29.00
2022-10-26T00:13:48.341Z,29.80
2022-10-26T00:16:23.499Z,33.20
2022-10-26T00:18:51.332Z,35.50
2022-10-26T00:21:19.032Z,33.90
2022-10-26T00:23:46.583Z,32.00
2022-10-26T00:26:14.081Z,34.00
2022-10-26T00:28:41.688Z,31.10
2022-10-26T00:31:13.976Z,36.10
2022-10-26T00:33:41.680Z,27.60
2022-10-26T00:36:10.404Z,30.20
2022-10-26T00:38:38.084Z,31.70
2022-10-26T00:41:05.646Z,29.40
2022-10-26T00:43:35.845Z,28.40
2022-10-26T00:46:08.605Z,29.60
2022-10-26T00:48:49.248Z,29.20
2022-10-26T00:51:32.526Z,36.30
2022-10-26T00:54:10.610Z,33.60
2022-10-26T00:56:39.587Z,62.30
2022-10-26T00:59:10.882Z,31.50
2022-10-26T01:01:41.629Z,28.50
2022-10-26T01:04:09.948Z,28.50
2022-10-26T01:06:38.947Z,29.20
2022-10-26T01:09:06.788Z,28.60
2022-10-26T01:11:34.287Z,29.20
2022-10-26T01:14:06.225Z,27.40
2022-10-26T01:16:38.452Z,30.00
2022-10-26T01:19:38.679Z,26.70
2022-10-26T01:22:10.194Z,30.20
2022-10-26T01:25:10.035Z,31.90
2022-10-26T01:27:47.256Z,32.60
2022-10-26T01:30:15.051Z,31.00
2022-10-26T01:32:58.518Z,27.10
2022-10-26T01:35:26.030Z,29.00
2022-10-26T01:38:15.398Z,32.40
2022-10-26T01:40:50.638Z,32.90
2022-10-26T01:43:20.125Z,29.60
2022-10-26T01:45:49.630Z,28.30
2022-10-26T01:48:20.547Z,37.00
2022-10-26T01:50:53.599Z,23.60
2022-10-26T01:53:21.500Z,25.50
2022-10-26T01:55:54.223Z,26.10
2022-10-26T01:58:48.600Z,23.40
2022-10-26T02:01:48.496Z,21.00
2022-10-26T02:04:41.156Z,25.60
2022-10-26T02:07:24.640Z,24.90
2022-10-26T02:10:03.499Z,25.30
2022-10-26T02:12:49.594Z,24.80
2022-10-26T02:15:24.934Z,22.30
2022-10-26T02:18:00.927Z,23.90
2022-10-26T02:20:34.753Z,23.40
2022-10-26T02:23:07.194Z,27.80
2022-10-26T02:25:40.972Z,22.80
2022-10-26T02:28:16.254Z,28.20
2022-10-26T02:30:46.337Z,22.70
2022-10-26T02:33:15.975Z,25.80
2022-10-26T02:35:47.580Z,21.60
2022-10-26T02:38:18.241Z,23.30
2022-10-26T02:40:48.543Z,20.40
2022-10-26T02:43:22.047Z,22.30
2022-10-26T02:45:56.143Z,21.30
2022-10-26T02:48:24.235Z,21.20
2022-10-26T02:51:02.947Z,20.50
2022-10-26T02:53:39.613Z,21.00
2022-10-26T02:56:20.268Z,19.90
2022-10-26T02:58:54.000Z,20.90
2022-10-26T03:01:21.598Z,19.70
2022-10-26T03:03:49.359Z,25.40
2022-10-26T03:06:24.332Z,21.90
2022-10-26T03:08:52.256Z,22.50
2022-10-26T03:11:19.810Z,21.40
2022-10-26T03:13:47.259Z,19.40
2022-10-26T03:16:14.751Z,19.00
2022-10-26T03:18:42.311Z,21.40
2022-10-26T03:21:09.842Z,19.50
2022-10-26T03:23:37.466Z,17.20
2022-10-26T03:26:05.054Z,22.10
2022-10-26T03:28:32.546Z,18.50
2022-10-26T03:31:00.028Z,19.00
2022-10-26T03:33:28.037Z,16.90
2022-10-26T03:35:59.539Z,17.10
2022-10-26T03:38:27.034Z,22.50
2022-10-26T03:40:54.571Z,26.40
2022-10-26T03:43:22.089Z,27.60
2022-10-26T03:45:49.637Z,21.80
2022-10-26T03:48:17.072Z,34.20
2022-10-26T03:50:44.860Z,27.90
2022-10-26T03:53:12.352Z,24.90
2022-10-26T03:55:39.840Z,19.70
2022-10-26T03:58:07.281Z,22.30
2022-10-26T04:00:34.754Z,22.90
2022-10-26T04:03:02.233Z,23.60
2022-10-26T04:05:30.055Z,25.20
2022-10-26T04:08:00.097Z,20.90
2022-10-26T04:10:28.001Z,19.60
2022-10-26T04:12:57.253Z,18.10
2022-10-26T04:15:25.570Z,16.60
2022-10-26T04:17:58.473Z,18.30
2022-10-26T04:20:27.232Z,18.70
2022-10-26T04:23:03.528Z,28.10
2022-10-26T04:25:33.243Z,48.50
2022-10-26T04:28:03.356Z,23.90
2022-10-26T04:30:31.540Z,17.60
2022-10-26T04:32:59.317Z,23.20
2022-10-26T04:35:27.946Z,22.90
2022-10-26T04:38:00.155Z,30.60
2022-10-26T04:40:29.262Z,30.30
2022-10-26T04:42:57.006Z,39.70
2022-10-26T04:45:24.795Z,30.50
2022-10-26T04:48:03.650Z,31.10
2022-10-26T04:50:31.342Z,60.20
2022-10-26T04:52:59.144Z,44.00
2022-10-26T04:55:26.730Z,24.00
2022-10-26T04:57:57.114Z,35.10
2022-10-26T05:00:30.084Z,47.80
2022-10-26T05:03:02.677Z,22.30
2022-10-26T05:05:32.230Z,23.70
2022-10-26T05:07:59.794Z,26.00
2022-10-26T05:10:27.902Z,34.50
2022-10-26T05:12:57.322Z,24.80
2022-10-26T05:15:25.006Z,20.60
2022-10-26T05:18:01.514Z,22.60
2022-10-26T05:20:31.467Z,19.80
2022-10-26T05:23:01.205Z,24.50
2022-10-26T05:25:31.657Z,46.10
2022-10-26T05:28:04.153Z,39.70
2022-10-26T05:30:32.427Z,30.70
2022-10-26T05:33:04.673Z,28.10
2022-10-26T05:35:33.163Z,18.60
2022-10-26T05:38:07.549Z,36.70
2022-10-26T05:40:35.185Z,31.30
2022-10-26T05:43:02.901Z,47.40
2022-10-26T05:45:30.738Z,41.10
2022-10-26T05:48:02.814Z,28.20
2022-10-26T05:50:32.090Z,31.40
2022-10-26T05:52:59.594Z,30.70
2022-10-26T05:55:27.484Z,24.90
2022-10-26T05:57:55.270Z,28.90
2022-10-26T06:00:25.720Z,46.30
2022-10-26T06:03:19.881Z,46.10
2022-10-26T06:06:06.711Z,46.50
2022-10-26T06:08:35.569Z,37.80
2022-10-26T06:11:03.339Z,25.80
2022-10-26T06:13:33.794Z,46.70
2022-10-26T06:16:20.186Z,30.30
2022-10-26T06:19:02.046Z,24.00
2022-10-26T06:21:57.005Z,25.00
2022-10-26T06:24:56.572Z,25.40
2022-10-26T06:27:52.466Z,23.90
2022-10-26T06:30:23.461Z,22.70
2022-10-26T06:33:01.409Z,23.50
2022-10-26T06:35:45.738Z,26.20
2022-10-26T06:38:22.306Z,28.30
2022-10-26T06:40:55.389Z,32.50
2022-10-26T06:43:26.321Z,21.20
2022-10-26T06:46:19.677Z,24.00
2022-10-26T06:49:29.819Z,23.80
2022-10-26T06:52:20.829Z,23.00
2022-10-26T06:54:54.475Z,27.50
2022-10-26T06:57:24.663Z,20.40
2022-10-26T07:00:16.283Z,21.90
2022-10-26T07:02:44.267Z,21.80
2022-10-26T07:05:15.579Z,19.00
2022-10-26T07:07:46.490Z,21.40
2022-10-26T07:10:20.168Z,20.40
2022-10-26T07:12:51.060Z,21.10
2022-10-26T07:15:25.959Z,20.10
2022-10-26T07:17:53.934Z,20.80
2022-10-26T07:20:21.875Z,19.00
2022-10-26T07:22:56.811Z,21.10
2022-10-26T07:25:26.148Z,22.20
2022-10-26T07:27:58.852Z,19.10
2022-10-26T07:30:27.721Z,18.10
2022-10-26T07:33:02.845Z,22.30
2022-10-26T07:35:30.360Z,16.50
2022-10-26T07:37:59.409Z,22.40
2022-10-26T07:40:27.149Z,18.30
2022-10-26T07:42:59.844Z,21.80
2022-10-26T07:45:29.071Z,20.40
2022-10-26T07:47:57.746Z,21.90
2022-10-26T07:50:26.108Z,23.10
2022-10-26T07:52:54.692Z,23.20
2022-10-26T07:55:22.994Z,23.20
2022-10-26T07:57:52.554Z,22.20
2022-10-26T08:00:22.668Z,23.70
2022-10-26T08:02:50.349Z,23.90
2022-10-26T08:05:17.953Z,21.40
2022-10-26T08:07:46.772Z,28.90
2022-10-26T08:10:15.563Z,22.20
2022-10-26T08:12:44.101Z,17.80
2022-10-26T08:15:12.022Z,19.50
2022-10-26T08:17:39.934Z,19.30
2022-10-26T08:20:08.426Z,20.00
2022-10-26T08:22:38.111Z,23.30
2022-10-26T08:25:05.912Z,24.20
2022-10-26T08:27:33.380Z,19.80
2022-10-26T08:30:01.092Z,23.70
2022-10-26T08:32:29.066Z,24.00
2022-10-26T08:34:56.574Z,23.30
2022-10-26T08:37:24.643Z,33.40
2022-10-26T08:39:55.211Z,23.20
2022-10-26T08:42:47.498Z,22.30
2022-10-26T08:45:31.748Z,19.80
2022-10-26T08:48:09.604Z,20.20
2022-10-26T08:50:43.753Z,21.10
2022-10-26T08:53:21.353Z,22.50
2022-10-26T08:56:02.269Z,23.60
2022-10-26T08:58:40.478Z,21.60
2022-10-26T09:01:09.358Z,21.60
2022-10-26T09:03:37.046Z,20.00
2022-10-26T09:06:12.876Z,21.60
2022-10-26T09:08:57.763Z,21.90
2022-10-26T09:11:28.349Z,19.70
2022-10-26T09:14:14.747Z,25.00
2022-10-26T09:17:00.312Z,27.20
2022-10-26T09:19:59.729Z,18.50
2022-10-26T09:22:35.985Z,23.40
2022-10-26T09:25:16.234Z,20.20
2022-10-26T09:27:49.648Z,19.00
2022-10-26T09:30:20.507Z,21.60
2022-10-26T09:32:52.566Z,20.60
2022-10-26T09:35:27.015Z,22.10
2022-10-26T09:37:58.215Z,19.30
2022-10-26T09:41:01.715Z,22.40
2022-10-26T09:46:25.020Z,23.40
2022-10-26T09:48:58.716Z,26.80
2022-10-26T09:51:36.340Z,30.80
2022-10-26T09:54:21.340Z,29.00
2022-10-26T09:56:54.451Z,27.50
2022-10-26T09:59:24.304Z,25.60
2022-10-26T10:01:52.190Z,28.50
2022-10-26T10:04:22.729Z,25.30
2022-10-26T10:06:52.598Z,28.70
2022-10-26T10:09:22.314Z,29.10
2022-10-26T10:12:06.604Z,27.30
2022-10-26T10:14:37.428Z,28.30
2022-10-26T10:17:19.454Z,24.30
2022-10-26T10:19:47.221Z,24.90
2022-10-26T10:22:14.628Z,23.70
2022-10-26T10:24:52.962Z,22.60
2022-10-26T10:27:20.714Z,23.50
2022-10-26T10:29:59.674Z,20.20
2022-10-26T10:32:35.866Z,25.50
2022-10-26T10:35:29.547Z,26.90
2022-10-26T10:37:57.984Z,24.20
2022-10-26T10:40:31.478Z,19.80
2022-10-26T10:43:20.792Z,23.50
2022-10-26T10:45:53.681Z,18.90
2022-10-26T10:48:27.417Z,21.90
2022-10-26T10:51:23.902Z,20.90
2022-10-26T10:53:55.356Z,21.60
2022-10-26T10:56:26.001Z,21.20
2022-10-26T10:59:10.796Z,19.40
2022-10-26T11:01:42.974Z,18.20
2022-10-26T11:04:36.014Z,25.70
2022-10-26T11:07:07.497Z,23.40
2022-10-26T11:09:39.372Z,17.50
2022-10-26T11:12:23.425Z,18.80
2022-10-26T11:15:01.432Z,16.70
2022-10-26T11:17:44.313Z,23.30
2022-10-26T11:20:25.375Z,22.40
2022-10-26T11:22:53.254Z,22.50
2022-10-26T11:25:37.280Z,16.30
2022-10-26T11:28:36.908Z,22.30
2022-10-26T11:31:13.506Z,21.80
2022-10-26T11:33:46.970Z,22.40
2022-10-26T11:36:22.799Z,22.10
2022-10-26T11:39:06.209Z,24.00
2022-10-26T11:42:02.912Z,23.80
2022-10-26T11:44:57.993Z,23.10
2022-10-26T11:47:38.352Z,24.50
2022-10-26T11:50:25.488Z,29.80
2022-10-26T11:53:05.639Z,24.90
2022-10-26T11:55:33.498Z,24.60
2022-10-26T11:58:02.897Z,33.00
2022-10-26T12:00:32.969Z,24.80
2022-10-26T12:03:09.489Z,25.00
2022-10-26T12:05:49.655Z,29.80
2022-10-26T12:08:20.442Z,28.80
2022-10-26T12:11:19.966Z,29.70
2022-10-26T12:14:03.490Z,30.40
2022-10-26T12:16:49.886Z,30.80
2022-10-26T12:19:29.476Z,28.50
2022-10-26T12:21:57.660Z,31.60
2022-10-26T12:24:28.463Z,28.40
2022-10-26T12:26:58.976Z,24.40
2022-10-26T12:29:54.737Z,36.40
2022-10-26T12:32:28.248Z,26.70
2022-10-26T12:34:55.779Z,23.70
2022-10-26T12:37:37.658Z,28.80
2022-10-26T12:40:37.573Z,26.30
2022-10-26T12:43:24.066Z,27.80
2022-10-26T12:46:13.397Z,30.80
2022-10-26T12:48:43.049Z,43.50
2022-10-26T12:51:39.815Z,28.60
2022-10-26T12:54:07.690Z,27.10
2022-10-26T12:56:58.416Z,27.00
2022-10-26T13:00:00.284Z,29.60
2022-10-26T13:03:10.292Z,30.30
2022-10-26T13:06:02.304Z,25.90
2022-10-26T13:08:41.735Z,27.90
2022-10-26T13:11:29.806Z,27.90
2022-10-26T13:14:07.475Z,30.30
2022-10-26T13:16:35.410Z,26.60
2022-10-26T13:19:03.111Z,27.10
2022-10-26T13:21:31.207Z,32.70
2022-10-26T13:24:06.203Z,32.60
2022-10-26T13:27:09.654Z,29.60
2022-10-26T13:30:14.013Z,29.00
2022-10-26T13:32:53.762Z,46.60
2022-10-26T13:35:24.113Z,45.40
2022-10-26T13:37:55.223Z,28.50
2022-10-26T13:40:29.238Z,33.50
2022-10-26T13:42:59.147Z,35.30
2022-10-26T13:45:34.173Z,29.30
2022-10-26T13:48:06.697Z,32.90
2022-10-26T13:50:47.868Z,36.20
2022-10-26T13:53:23.119Z,41.60
2022-10-26T13:55:54.448Z,33.10
2022-10-26T13:58:33.751Z,41.00
2022-10-26T14:01:01.538Z,69.70
2022-10-26T14:03:29.251Z,47.40
2022-10-26T14:05:57.545Z,46.90
2022-10-26T14:08:25.445Z,30.40
2022-10-26T14:10:57.245Z,36.30
2022-10-26T14:13:27.467Z,32.70
2022-10-26T14:15:57.663Z,31.30
2022-10-26T14:18:28.221Z,28.20
2022-10-26T14:21:05.800Z,34.90
2022-10-26T14:23:33.274Z,38.30
2022-10-26T14:26:01.355Z,55.80
2022-10-26T14:28:31.781Z,37.30
2022-10-26T14:31:31.281Z,48.70
2022-10-26T14:34:01.623Z,34.50
2022-10-26T14:36:36.725Z,29.90
2022-10-26T14:39:09.408Z,43.40
2022-10-26T14:41:37.085Z,67.00
2022-10-26T14:44:04.680Z,132.30
2022-10-26T14:46:35.364Z,47.00
2022-10-26T14:49:03.454Z,41.40
2022-10-26T14:51:35.562Z,57.70
2022-10-26T14:54:04.850Z,44.80
2022-10-26T14:56:35.350Z,47.80
2022-10-26T14:59:42.342Z,70.70
2022-10-26T15:02:20.032Z,129.90
2022-10-26T15:05:17.413Z,139.70
2022-10-26T15:07:45.529Z,48.00
2022-10-26T15:10:44.932Z,75.60
2022-10-26T15:13:31.158Z,61.80
2022-10-26T15:16:09.489Z,82.00
2022-10-26T15:18:38.752Z,50.80
2022-10-26T15:21:33.506Z,95.70
2022-10-26T15:24:02.119Z,54.40
2022-10-26T15:26:30.488Z,65.60
2022-10-26T15:28:59.299Z,125.20
2022-10-26T15:31:26.748Z,64.20
2022-10-26T15:33:54.178Z,66.00
2022-10-26T15:36:26.673Z,74.00
2022-10-26T15:38:55.576Z,63.30
2022-10-26T15:41:35.411Z,61.20
2022-10-26T15:44:09.954Z,51.40
2022-10-26T15:46:38.935Z,60.30
2022-10-26T15:49:13.853Z,55.10
2022-10-26T15:51:46.387Z,52.50
2022-10-26T15:54:14.904Z,49.20
2022-10-26T15:56:46.297Z,53.20
2022-10-26T15:59:16.764Z,84.10
2022-10-26T16:01:44.741Z,102.70
2022-10-26T16:04:12.690Z,95.10
2022-10-26T16:06:41.920Z,61.40
2022-10-26T16:09:15.910Z,106.60
2022-10-26T16:11:44.680Z,196.50
2022-10-26T16:14:13.200Z,126.00
2022-10-26T16:16:41.276Z,67.40
2022-10-26T16:19:30.419Z,54.30
2022-10-26T16:21:57.597Z,49.70
2022-10-26T16:24:26.218Z,53.50
2022-10-26T16:26:54.420Z,48.70
2022-10-26T16:29:21.955Z,34.60
2022-10-26T16:31:50.354Z,45.00
2022-10-26T16:34:18.295Z,45.80
2022-10-26T16:36:45.786Z,47.20
2022-10-26T16:39:14.374Z,37.50
2022-10-26T16:41:42.122Z,61.70
2022-10-26T16:44:12.685Z,47.80
2022-10-26T16:46:40.210Z,68.40
2022-10-26T16:49:07.701Z,58.20
2022-10-26T16:51:35.286Z,72.90
2022-10-26T16:54:02.817Z,45.80
2022-10-26T16:56:30.470Z,57.80
2022-10-26T16:58:58.068Z,56.90
2022-10-26T17:01:26.259Z,54.50
2022-10-26T17:03:53.995Z,39.60
2022-10-26T17:06:22.425Z,35.60
2022-10-26T17:08:49.980Z,35.70
2022-10-26T17:11:20.291Z,35.20
2022-10-26T17:13:52.659Z,32.80
2022-10-26T17:16:22.553Z,41.20
2022-10-26T17:18:50.657Z,37.90
2022-10-26T17:21:28.264Z,34.30
2022-10-26T17:23:56.385Z,86.20
2022-10-26T17:26:23.882Z,108.70
2022-10-26T17:28:56.950Z,101.70
2022-10-26T17:31:25.746Z,102.20
2022-10-26T17:33:53.994Z,118.20
2022-10-26T17:36:22.982Z,142.70
2022-10-26T17:38:53.171Z,92.40
2022-10-26T17:41:22.193Z,96.50
2022-10-26T17:43:50.085Z,48.10
2022-10-26T17:46:20.126Z,63.20
2022-10-26T17:48:47.690Z,64.40
2022-10-26T17:51:17.408Z,122.20
2022-10-26T17:53:50.073Z,77.80
2022-10-26T17:56:18.975Z,33.20
2022-10-26T17:58:51.572Z,26.80
2022-10-26T18:01:19.737Z,25.90
2022-10-26T18:03:47.366Z,57.90
2022-10-26T18:06:17.068Z,88.80
2022-10-26T18:08:45.324Z,105.20
2022-10-26T18:11:22.564Z,124.10
2022-10-26T18:13:54.746Z,97.00
2022-10-26T18:16:24.288Z,51.90
2022-10-26T18:19:00.072Z,51.40
2022-10-26T18:21:30.470Z,66.20
2022-10-26T18:23:58.069Z,49.00
2022-10-26T18:26:31.036Z,34.80
2022-10-26T18:29:00.803Z,35.60
2022-10-26T18:31:30.703Z,42.00
2022-10-26T18:34:00.523Z,48.70
2022-10-26T18:36:29.366Z,63.30
2022-10-26T18:38:57.393Z,46.70
2022-10-26T18:41:26.191Z,34.30
2022-10-26T18:43:58.631Z,29.70
2022-10-26T18:46:31.099Z,53.80
2022-10-26T18:49:00.698Z,31.40
2022-10-26T18:51:33.421Z,75.80
2022-10-26T18:54:01.805Z,44.10
2022-10-26T18:56:29.360Z,36.80
2022-10-26T18:58:59.078Z,41.40
2022-10-26T19:01:28.423Z,48.40
2022-10-26T19:03:58.455Z,107.30
2022-10-26T19:06:32.023Z,122.70
2022-10-26T19:09:00.745Z,84.70
2022-10-26T19:11:30.594Z,41.20
2022-10-26T19:13:58.329Z,36.30
2022-10-26T19:19:19.074Z,94.40
2022-10-26T19:21:49.056Z,103.10
2022-10-26T19:24:22.400Z,124.00
2022-10-26T19:26:51.297Z,75.20
2022-10-26T19:29:20.206Z,73.00
2022-10-26T19:31:52.006Z,69.40
2022-10-26T19:34:19.761Z,93.10
2022-10-26T19:36:47.698Z,83.10
2022-10-26T19:39:17.134Z,66.00
2022-10-26T19:41:45.906Z,273.50
2022-10-26T19:44:14.713Z,124.90
2022-10-26T19:46:43.458Z,113.00
2022-10-26T19:49:12.999Z,76.20
2022-10-26T19:51:40.750Z,63.70
2022-10-26T19:54:08.541Z,158.40
2022-10-26T19:56:37.715Z,151.20
2022-10-26T19:59:06.534Z,72.80
2022-10-26T20:01:34.438Z,69.20
2022-10-26T20:04:02.684Z,84.40
2022-10-26T20:06:30.998Z,166.50
2022-10-26T20:08:59.984Z,169.70
2022-10-26T20:11:27.880Z,146.00
2022-10-26T20:13:56.458Z,236.40
2022-10-26T20:16:25.268Z,157.10
2022-10-26T20:18:52.783Z,95.20
2022-10-26T20:21:20.286Z,96.00
2022-10-26T20:23:47.827Z,96.90
2022-10-26T20:26:19.341Z,98.30
2022-10-26T20:28:51.266Z,105.00
2022-10-26T20:31:19.945Z,96.10
2022-10-26T20:33:55.083Z,96.10
2022-10-26T20:36:22.866Z,62.20
2022-10-26T20:38:51.296Z,57.90
2022-10-26T20:41:19.678Z,57.90
2022-10-26T20:43:47.698Z,62.80
2022-10-26T20:46:31.418Z,63.90
2022-10-26T20:48:59.177Z,100.00
2022-10-26T20:51:56.794Z,68.40
2022-10-26T20:54:54.434Z,53.70
2022-10-26T20:57:28.662Z,34.50
2022-10-26T21:00:03.794Z,51.00
2022-10-26T21:02:32.147Z,47.80
2022-10-26T21:04:59.607Z,48.10
2022-10-26T21:07:27.150Z,48.30
2022-10-26T21:09:54.673Z,49.70
2022-10-26T21:12:22.699Z,54.10
2022-10-26T21:14:50.151Z,60.40
2022-10-26T21:17:17.897Z,61.20
2022-10-26T21:19:45.363Z,45.10
2022-10-26T21:22:12.904Z,45.00
2022-10-26T21:24:40.390Z,46.70
2022-10-26T21:27:07.900Z,45.30
2022-10-26T21:29:35.411Z,33.70
2022-10-26T21:32:02.964Z,47.60
2022-10-26T21:34:30.438Z,41.50
2022-10-26T21:36:57.912Z,80.00
2022-10-26T21:39:25.397Z,93.60
2022-10-26T21:41:52.865Z,63.10
2022-10-26T21:44:40.083Z,39.50
2022-10-26T21:47:08.333Z,38.50
2022-10-26T21:49:35.993Z,38.70
2022-10-26T21:52:03.537Z,34.20
2022-10-26T21:54:31.005Z,30.70
2022-10-26T21:56:58.559Z,38.90
2022-10-26T21:59:26.055Z,32.30
2022-10-26T22:01:53.693Z,68.40
2022-10-26T22:04:21.339Z,91.80
2022-10-26T22:06:48.902Z,81.90
2022-10-26T22:09:16.503Z,53.70
2022-10-26T22:11:44.410Z,46.30
2022-10-26T22:14:14.233Z,34.80
2022-10-26T22:16:41.787Z,36.00
2022-10-26T22:19:09.537Z,53.50
2022-10-26T22:21:40.308Z,75.20
2022-10-26T22:24:08.865Z,125.00
2022-10-26T22:26:37.129Z,113.60
2022-10-26T22:29:05.288Z,98.00
2022-10-26T22:31:39.276Z,102.70
2022-10-26T22:34:13.129Z,93.30
2022-10-26T22:36:41.249Z,87.60
2022-10-26T22:39:08.901Z,78.10
2022-10-26T22:41:36.504Z,71.40
2022-10-26T22:44:04.227Z,63.90
2022-10-26T22:46:31.851Z,54.20
2022-10-26T22:49:01.555Z,56.00
2022-10-26T22:51:34.861Z,44.00
2022-10-26T22:54:04.460Z,47.80
2022-10-26T22:56:35.041Z,43.70
2022-10-26T22:59:04.183Z,36.60
2022-10-26T23:01:36.895Z,43.70
2022-10-26T23:04:05.163Z,42.00
2022-10-26T23:06:33.348Z,38.10
2022-10-26T23:09:00.914Z,40.20
2022-10-26T23:11:29.242Z,48.40
2022-10-26T23:13:59.947Z,44.50
2022-10-26T23:16:29.259Z,44.70
2022-10-26T23:18:58.756Z,43.10
2022-10-26T23:21:27.995Z,41.20
2022-10-26T23:23:56.260Z,48.80
2022-10-26T23:26:24.542Z,69.60
2022-10-26T23:28:52.149Z,59.60
2022-10-26T23:31:28.146Z,56.20
2022-10-26T23:33:56.940Z,40.90
2022-10-26T23:36:25.042Z,52.40
2022-10-26T23:38:52.709Z,61.30
2022-10-26T23:41:20.272Z,53.90
2022-10-26T23:43:47.916Z,55.30
2022-10-26T23:46:15.597Z,62.50
2022-10-26T23:48:43.195Z,54.50
2022-10-26T23:51:10.746Z,54.80
2022-10-26T23:53:38.355Z,54.00
2022-10-26T23:56:06.408Z,55.00
2022-10-26T23:58:33.992Z,55.50
